Time;durP1;ratioP1;P1;durP2;ratioP2;P2;SDS_P1;SDS_P2;PMS_P1;PMS_P2;Temp;Humidity;BMP_temperature;BMP_pressure;BME280_temperature;BME280_humidity;BME280_pressure;Samples;Min_cycle;Max_cycle;Signal;HPM_P1;HPM_P2
2021/05/10 00:02:17;;;;;;;3.15;1.77;;;19.40;71.00;;;;;;5070966;28;20542;-71
2021/05/10 00:04:44;;;;;;;2.78;1.73;;;19.40;71.00;;;;;;5051865;28;20049;-71
2021/05/10 00:07:11;;;;;;;3.10;2.10;;;19.40;71.00;;;;;;5068966;28;20044;-71
2021/05/10 00:09:38;;;;;;;3.40;2.47;;;19.40;71.00;;;;;;5054460;28;20097;-71
2021/05/10 00:12:05;;;;;;;5.38;2.50;;;19.30;71.00;;;;;;5071519;28;20090;-71
2021/05/10 00:14:43;;;;;;;4.75;2.72;;;19.30;70.90;;;;;;5070517;28;20044;-71
2021/05/10 00:17:10;;;;;;;2.80;2.08;;;19.30;71.00;;;;;;5071340;28;20094;-71
2021/05/10 00:19:37;;;;;;;3.60;1.90;;;19.30;71.00;;;;;;5070658;28;20049;-71
2021/05/10 00:22:04;;;;;;;2.90;2.28;;;19.30;71.10;;;;;;5072313;28;20404;-71
2021/05/10 00:24:31;;;;;;;3.50;2.15;;;19.30;71.10;;;;;;5072120;28;20040;-71
2021/05/10 00:26:58;;;;;;;3.42;2.20;;;19.30;71.10;;;;;;5061088;28;20105;-71
2021/05/10 00:29:24;;;;;;;5.43;2.95;;;19.30;71.20;;;;;;5053249;28;20045;-72
2021/05/10 00:31:51;;;;;;;4.57;2.97;;;19.20;71.20;;;;;;5071092;28;20043;-71
2021/05/10 00:34:18;;;;;;;3.03;2.30;;;19.20;71.20;;;;;;5070910;28;20051;-71
2021/05/10 00:36:45;;;;;;;4.28;2.28;;;19.20;71.20;;;;;;5056846;28;20041;-71
2021/05/10 00:39:12;;;;;;;3.47;2.30;;;19.20;71.30;;;;;;5072742;28;20092;-72
2021/05/10 00:41:38;;;;;;;3.90;2.42;;;19.20;71.30;;;;;;5071388;28;20044;-71
2021/05/10 00:44:05;;;;;;;3.90;2.05;;;19.20;72.10;;;;;;5070621;28;20059;-71
2021/05/10 00:46:36;;;;;;;3.03;2.22;;;19.20;71.50;;;;;;5072121;28;20036;-71
2021/05/10 00:49:04;;;;;;;3.00;1.92;;;19.20;71.60;;;;;;5071693;28;20044;-71
2021/05/10 00:51:30;;;;;;;2.92;2.05;;;19.10;71.60;;;;;;5073492;28;20119;-71
2021/05/10 00:53:57;;;;;;;4.38;2.30;;;19.10;71.70;;;;;;5073570;28;20044;-71
2021/05/10 00:56:24;;;;;;;5.65;2.33;;;19.10;71.70;;;;;;5067985;28;20370;-72
2021/05/10 00:58:51;;;;;;;3.83;2.50;;;19.10;71.80;;;;;;5067887;28;20052;-72
2021/05/10 01:01:18;;;;;;;2.97;1.90;;;19.10;71.70;;;;;;5070856;28;20044;-72
2021/05/10 01:03:49;;;;;;;3.15;2.28;;;19.10;71.80;;;;;;5071477;28;20062;-71
2021/05/10 01:06:16;;;;;;;3.83;1.90;;;19.10;71.80;;;;;;5070447;28;20060;-71
2021/05/10 01:08:43;;;;;;;3.05;2.08;;;19.00;71.90;;;;;;5071653;28;20040;-72
2021/05/10 01:11:09;;;;;;;3.30;1.60;;;19.00;71.90;;;;;;5071045;28;20037;-71
2021/05/10 01:13:36;;;;;;;3.35;1.90;;;19.00;72.10;;;;;;5071611;28;20039;-72
2021/05/10 01:16:03;;;;;;;4.80;2.50;;;19.00;72.10;;;;;;5069510;28;20055;-72
2021/05/10 01:18:31;;;;;;;2.83;1.80;;;19.00;72.10;;;;;;5075636;28;20396;-72
2021/05/10 01:21:00;;;;;;;4.05;1.90;;;18.90;72.10;;;;;;5071879;28;20075;-71
2021/05/10 01:23:28;;;;;;;3.42;1.73;;;18.90;72.10;;;;;;5075777;28;20388;-72
2021/05/10 01:25:55;;;;;;;3.03;1.80;;;18.90;72.20;;;;;;5075069;28;20518;-71
2021/05/10 01:28:22;;;;;;;2.75;1.60;;;18.90;72.30;;;;;;5076697;28;20119;-71
2021/05/10 01:30:50;;;;;;;4.35;2.00;;;18.90;72.40;;;;;;5074333;28;20060;-72
2021/05/10 01:33:19;;;;;;;2.63;1.70;;;18.90;72.50;;;;;;5075783;28;20032;-71
2021/05/10 01:35:48;;;;;;;2.67;1.75;;;18.80;72.50;;;;;;5074730;28;20040;-71
2021/05/10 01:38:15;;;;;;;2.97;1.60;;;18.80;72.70;;;;;;5075295;28;20056;-71
2021/05/10 01:40:46;;;;;;;3.88;1.75;;;18.80;72.80;;;;;;5076148;28;20468;-72
2021/05/10 01:43:15;;;;;;;2.83;1.52;;;18.70;72.90;;;;;;5075309;28;20110;-71
2021/05/10 01:45:42;;;;;;;3.72;1.48;;;18.70;73.00;;;;;;5074295;28;20044;-71
2021/05/10 01:48:11;;;;;;;3.42;1.40;;;18.70;73.20;;;;;;5073800;28;20041;-72
2021/05/10 01:50:39;;;;;;;4.40;1.98;;;18.70;73.30;;;;;;5075869;28;20047;-72
2021/05/10 01:53:07;;;;;;;2.90;1.40;;;18.60;73.40;;;;;;5075159;28;20064;-72
2021/05/10 01:55:35;;;;;;;2.63;1.75;;;18.60;73.60;;;;;;5061779;28;20048;-72
2021/05/10 01:58:03;;;;;;;2.72;1.48;;;18.60;74.40;;;;;;5072395;28;20058;-71
2021/05/10 02:00:31;;;;;;;3.95;1.60;;;18.50;73.90;;;;;;5072077;28;20113;-71
2021/05/10 02:03:00;;;;;;;2.17;1.40;;;18.50;74.00;;;;;;5074142;28;20036;-72
2021/05/10 02:05:27;;;;;;;2.83;1.70;;;18.40;74.20;;;;;;5074453;28;20037;-72
2021/05/10 02:07:57;;;;;;;2.97;1.77;;;18.40;74.40;;;;;;5073165;28;20041;-72
2021/05/10 02:10:50;;;;;;;4.07;1.80;;;18.30;74.50;;;;;;5075060;28;20118;-72
2021/05/10 02:13:22;;;;;;;2.92;1.73;;;18.30;74.60;;;;;;5073486;28;20044;-72
2021/05/10 02:15:51;;;;;;;2.78;1.50;;;18.30;74.70;;;;;;5074718;28;20106;-72
2021/05/10 02:18:24;;;;;;;2.70;1.55;;;18.20;75.40;;;;;;5073778;28;20074;-72
2021/05/10 02:20:51;;;;;;;2.72;1.58;;;18.20;74.90;;;;;;5073787;28;20102;-73
2021/05/10 02:23:23;;;;;;;3.75;1.55;;;18.10;74.90;;;;;;5073545;28;20508;-73
2021/05/10 02:25:54;;;;;;;2.38;1.58;;;18.10;75.00;;;;;;5075615;28;20067;-72
2021/05/10 02:28:24;;;;;;;3.63;1.45;;;18.10;75.10;;;;;;5074688;28;20032;-72
2021/05/10 02:30:56;;;;;;;2.90;1.67;;;18.10;75.10;;;;;;5076148;28;20393;-72
2021/05/10 02:33:26;;;;;;;4.30;1.42;;;18.10;75.20;;;;;;5074710;28;20353;-72
2021/05/10 02:35:54;;;;;;;2.53;1.58;;;18.00;75.20;;;;;;5075636;28;20036;-72
2021/05/10 02:38:22;;;;;;;3.55;1.60;;;18.00;75.30;;;;;;5075151;28;20071;-73
2021/05/10 02:40:50;;;;;;;3.20;1.58;;;18.00;75.40;;;;;;5075035;28;20044;-72
2021/05/10 02:43:17;;;;;;;4.28;1.45;;;18.00;75.50;;;;;;5074600;28;20045;-73
2021/05/10 02:45:45;;;;;;;3.30;1.60;;;18.00;75.60;;;;;;5072830;28;20040;-73
2021/05/10 02:48:13;;;;;;;3.75;1.40;;;18.00;75.60;;;;;;5073742;28;20492;-72
2021/05/10 02:50:40;;;;;;;2.22;1.60;;;18.00;75.70;;;;;;5074075;28;20400;-73
2021/05/10 02:53:07;;;;;;;3.30;1.40;;;17.90;75.70;;;;;;5072631;28;20051;-72
2021/05/10 02:55:33;;;;;;;3.47;1.55;;;17.90;75.80;;;;;;5074550;28;20041;-72
2021/05/10 02:58:00;;;;;;;2.92;1.30;;;17.90;75.80;;;;;;5072373;28;20037;-72
2021/05/10 03:00:28;;;;;;;4.85;1.60;;;17.90;75.80;;;;;;5072430;28;20136;-73
2021/05/10 03:02:56;;;;;;;2.53;1.33;;;17.90;75.80;;;;;;5073934;28;20060;-72
2021/05/10 03:05:25;;;;;;;2.97;1.60;;;17.90;75.90;;;;;;5075264;28;20086;-72
2021/05/10 03:07:52;;;;;;;3.25;1.42;;;17.90;76.00;;;;;;5067420;28;20733;-72
2021/05/10 03:10:21;;;;;;;3.03;1.20;;;17.90;76.10;;;;;;5069386;28;20051;-72
2021/05/10 03:12:50;;;;;;;2.55;1.10;;;17.90;76.10;;;;;;5072653;28;20431;-73
2021/05/10 03:15:18;;;;;;;2.17;1.40;;;17.90;76.20;;;;;;5073571;28;20040;-73
2021/05/10 03:17:47;;;;;;;1.73;1.00;;;17.80;76.20;;;;;;5073551;28;20036;-72
2021/05/10 03:20:16;;;;;;;2.83;1.10;;;17.80;76.30;;;;;;5073705;28;20507;-72
2021/05/10 03:22:43;;;;;;;3.67;1.17;;;17.80;76.40;;;;;;5040251;28;20040;-72
2021/05/10 03:25:11;;;;;;;4.45;1.30;;;17.70;76.40;;;;;;5064911;28;20041;-73
2021/05/10 03:27:39;;;;;;;3.00;1.15;;;17.70;76.40;;;;;;5073413;28;20068;-73
2021/05/10 03:30:07;;;;;;;2.45;0.98;;;17.70;76.60;;;;;;5072495;28;20044;-72
2021/05/10 03:32:34;;;;;;;2.17;0.60;;;17.60;76.70;;;;;;5073020;28;20093;-72
2021/05/10 03:35:00;;;;;;;2.20;0.80;;;17.50;76.70;;;;;;5072080;28;20048;-73
2021/05/10 03:37:27;;;;;;;1.75;0.80;;;17.50;76.70;;;;;;5073748;28;20048;-73
2021/05/10 03:39:54;;;;;;;1.45;0.55;;;17.50;76.60;;;;;;5071924;28;20051;-72
2021/05/10 03:42:20;;;;;;;1.85;0.73;;;17.50;76.40;;;;;;5073616;28;20055;-72
2021/05/10 03:44:47;;;;;;;1.60;0.68;;;17.60;76.40;;;;;;5073187;28;20064;-73
2021/05/10 03:47:13;;;;;;;1.60;0.70;;;17.60;76.30;;;;;;5072653;28;20438;-73
2021/05/10 03:49:40;;;;;;;1.13;0.57;;;17.60;76.30;;;;;;5055706;28;20045;-73
2021/05/10 03:52:06;;;;;;;1.90;0.60;;;17.60;76.90;;;;;;5053871;28;20064;-72
2021/05/10 03:54:33;;;;;;;1.38;0.47;;;17.60;76.30;;;;;;5072295;28;20033;-73
2021/05/10 03:56:59;;;;;;;2.35;0.50;;;17.60;76.40;;;;;;5072595;28;20052;-73
2021/05/10 03:59:26;;;;;;;1.10;0.50;;;17.50;76.20;;;;;;5059337;28;20066;-73
2021/05/10 04:01:54;;;;;;;1.17;0.40;;;17.60;76.20;;;;;;5072311;28;20554;-73
2021/05/10 04:04:36;;;;;;;2.03;0.50;;;17.60;76.10;;;;;;5072942;28;20102;-73
2021/05/10 04:15:15;;;;;;;1.33;0.50;;;17.70;75.40;;;;;;5068152;28;20044;-73
2021/05/10 04:17:42;;;;;;;0.82;0.40;;;17.80;74.70;;;;;;5071176;28;20046;-72
2021/05/10 04:20:10;;;;;;;1.33;0.30;;;17.90;74.20;;;;;;5070872;28;20048;-73
2021/05/10 04:22:38;;;;;;;1.95;0.60;;;18.00;73.70;;;;;;5071266;28;20049;-73
2021/05/10 04:25:06;;;;;;;2.58;0.40;;;18.10;73.30;;;;;;5072461;28;20047;-72
2021/05/10 04:27:33;;;;;;;1.10;0.57;;;18.20;72.90;;;;;;5054756;28;20040;-73
2021/05/10 04:29:59;;;;;;;0.70;0.40;;;18.30;73.00;;;;;;5071089;28;20055;-73
2021/05/10 04:32:26;;;;;;;1.85;0.40;;;18.30;72.50;;;;;;5071129;28;20119;-73
2021/05/10 04:34:53;;;;;;;0.85;0.30;;;18.40;72.40;;;;;;5070294;28;20033;-73
2021/05/10 04:37:20;;;;;;;3.85;0.40;;;18.40;72.00;;;;;;5071254;28;20052;-73
2021/05/10 04:39:46;;;;;;;0.93;0.30;;;18.50;71.60;;;;;;5054671;28;20501;-73
2021/05/10 04:42:13;;;;;;;1.55;0.50;;;18.60;71.50;;;;;;5071056;28;20048;-72
2021/05/10 04:44:39;;;;;;;0.30;0.20;;;18.70;71.30;;;;;;5072150;28;20041;-73
2021/05/10 04:47:06;;;;;;;2.45;0.50;;;18.70;71.00;;;;;;5071502;28;20044;-73
2021/05/10 04:49:33;;;;;;;0.95;0.40;;;18.80;70.60;;;;;;5070964;28;20396;-72
2021/05/10 04:51:59;;;;;;;3.25;0.60;;;18.80;70.30;;;;;;5071450;28;20086;-72
2021/05/10 04:54:26;;;;;;;1.77;0.45;;;18.90;69.50;;;;;;5070584;28;20036;-72
2021/05/10 04:56:52;;;;;;;0.98;0.40;;;19.00;69.00;;;;;;5072075;28;20040;-72
2021/05/10 04:59:21;;;;;;;1.52;0.50;;;19.10;68.80;;;;;;5072644;28;20041;-73
2021/05/10 05:01:47;;;;;;;1.00;0.40;;;19.10;68.20;;;;;;5050543;28;20052;-72
2021/05/10 05:04:16;;;;;;;2.05;0.40;;;19.20;67.80;;;;;;5053587;28;20139;-72
2021/05/10 05:06:43;;;;;;;1.50;0.40;;;19.20;67.90;;;;;;5072361;28;20124;-73
2021/05/10 05:09:09;;;;;;;0.70;0.30;;;19.20;68.00;;;;;;5054150;28;20550;-73
2021/05/10 05:11:36;;;;;;;1.65;0.40;;;19.20;68.00;;;;;;5072221;28;20094;-73
2021/05/10 05:14:03;;;;;;;1.30;0.40;;;19.10;67.60;;;;;;5069827;28;20047;-72
2021/05/10 05:16:32;;;;;;;1.58;0.47;;;19.10;67.50;;;;;;5053560;28;20044;-73
2021/05/10 05:18:59;;;;;;;0.93;0.43;;;19.20;67.00;;;;;;5070587;28;20051;-72
2021/05/10 05:21:26;;;;;;;2.35;0.47;;;19.30;67.00;;;;;;5053954;28;20491;-73
2021/05/10 05:23:52;;;;;;;1.30;0.47;;;19.30;66.50;;;;;;5071170;28;20396;-72
2021/05/10 05:26:19;;;;;;;1.23;0.60;;;19.30;66.40;;;;;;5054262;28;20067;-73
2021/05/10 05:28:45;;;;;;;1.98;0.50;;;19.40;66.30;;;;;;5069813;28;20036;-73
2021/05/10 05:31:11;;;;;;;0.80;0.40;;;19.40;66.10;;;;;;5072454;28;20091;-73
2021/05/10 05:33:38;;;;;;;1.17;0.50;;;19.40;66.20;;;;;;5071701;28;20032;-72
2021/05/10 05:36:25;;;;;;;1.95;0.60;;;19.50;65.90;;;;;;5070968;28;20044;-73
2021/05/10 05:38:51;;;;;;;2.13;0.50;;;19.50;66.00;;;;;;5071863;28;20053;-73
2021/05/10 05:41:18;;;;;;;2.08;0.40;;;19.50;66.20;;;;;;5073063;28;20036;-71
2021/05/10 05:43:45;;;;;;;1.52;0.47;;;19.40;66.40;;;;;;5071897;28;20044;-72
2021/05/10 05:46:14;;;;;;;2.65;0.40;;;19.40;67.00;;;;;;5072236;28;20036;-72
2021/05/10 05:48:41;;;;;;;2.88;0.40;;;19.40;66.50;;;;;;5071006;28;20041;-72
2021/05/10 05:51:11;;;;;;;1.95;0.40;;;19.40;66.50;;;;;;5068170;28;20040;-71
2021/05/10 05:53:39;;;;;;;1.42;0.40;;;19.30;66.60;;;;;;5073260;28;20048;-72
2021/05/10 05:56:05;;;;;;;2.05;0.40;;;19.30;66.80;;;;;;5065313;28;20127;-72
2021/05/10 05:58:32;;;;;;;1.80;0.50;;;19.20;66.90;;;;;;5068112;28;20048;-72
2021/05/10 06:01:02;;;;;;;0.68;0.30;;;19.20;67.10;;;;;;5064596;28;20061;-72
2021/05/10 06:03:29;;;;;;;1.20;0.30;;;19.10;67.40;;;;;;5063268;28;20041;-72
2021/05/10 06:05:56;;;;;;;1.10;0.30;;;19.00;67.80;;;;;;5049670;28;20620;-71
2021/05/10 06:08:23;;;;;;;2.17;0.50;;;18.90;67.90;;;;;;5071933;28;20480;-72
2021/05/10 06:10:50;;;;;;;0.60;0.20;;;18.90;68.00;;;;;;5071160;28;20039;-72
2021/05/10 06:13:21;;;;;;;1.08;0.30;;;18.90;68.20;;;;;;5070637;28;20040;-72
2021/05/10 06:15:48;;;;;;;1.00;0.30;;;18.90;68.10;;;;;;5073706;28;20040;-71
2021/05/10 06:18:15;;;;;;;3.03;0.43;;;19.00;68.00;;;;;;5074991;28;20106;-72
2021/05/10 06:20:42;;;;;;;0.85;0.30;;;19.00;67.80;;;;;;5068343;28;20041;-71
2021/05/10 06:23:08;;;;;;;1.10;0.40;;;19.10;67.80;;;;;;5066080;28;20045;-71
2021/05/10 06:25:35;;;;;;;1.02;0.30;;;19.10;67.80;;;;;;5071122;28;20052;-71
2021/05/10 06:28:02;;;;;;;1.50;0.28;;;19.30;67.70;;;;;;5074386;28;20048;-71
2021/05/10 06:30:29;;;;;;;0.95;0.30;;;19.40;67.40;;;;;;5073258;28;20036;-71
2021/05/10 06:32:55;;;;;;;0.93;0.30;;;19.60;67.20;;;;;;5073014;28;20037;-72
2021/05/10 06:35:22;;;;;;;1.15;0.43;;;19.80;66.60;;;;;;5055737;28;20052;-72
2021/05/10 06:37:49;;;;;;;1.35;0.38;;;19.90;66.30;;;;;;5050700;28;20484;-72
2021/05/10 06:40:16;;;;;;;0.25;0.10;;;19.90;66.10;;;;;;5070128;28;20439;-72
2021/05/10 06:42:42;;;;;;;0.50;0.20;;;19.80;66.10;;;;;;5072516;28;20063;-73
2021/05/10 06:45:09;;;;;;;0.75;0.13;;;19.70;66.30;;;;;;5055673;28;20385;-73
2021/05/10 06:47:39;;;;;;;0.32;0.15;;;19.60;66.60;;;;;;5073062;28;20036;-72
2021/05/10 06:50:07;;;;;;;0.90;0.22;;;19.50;66.30;;;;;;5074181;28;20097;-72
2021/05/10 06:52:34;;;;;;;0.10;0.10;;;19.40;66.30;;;;;;5074189;28;20496;-72
2021/05/10 06:55:03;;;;;;;0.40;0.10;;;19.40;66.40;;;;;;5073288;28;20582;-72
2021/05/10 06:57:31;;;;;;;0.47;0.10;;;19.30;66.20;;;;;;5073447;28;20450;-72
2021/05/10 06:59:58;;;;;;;0.08;0.08;;;19.30;66.10;;;;;;5056852;28;20060;-72
2021/05/10 07:02:26;;;;;;;1.40;0.10;;;19.40;66.20;;;;;;5066129;28;20059;-72
2021/05/10 07:04:53;;;;;;;0.10;0.10;;;19.40;66.10;;;;;;5072371;28;20511;-72
2021/05/10 07:07:20;;;;;;;0.20;0.10;;;19.50;66.10;;;;;;5070982;28;20055;-72
2021/05/10 07:09:52;;;;;;;0.77;0.10;;;19.60;66.00;;;;;;5077771;28;20051;-73
2021/05/10 07:12:18;;;;;;;0.30;0.10;;;19.60;65.90;;;;;;5072938;28;20385;-72
2021/05/10 07:14:45;;;;;;;0.88;0.17;;;19.70;65.80;;;;;;5080334;28;20094;-73
2021/05/10 07:17:11;;;;;;;0.40;0.10;;;19.60;65.50;;;;;;5080947;28;20097;-72
2021/05/10 07:19:41;;;;;;;0.22;0.10;;;19.60;65.50;;;;;;5062125;28;20043;-72
2021/05/10 07:22:07;;;;;;;0.93;0.10;;;19.60;65.50;;;;;;5075257;28;20036;-71
2021/05/10 07:24:34;;;;;;;0.47;0.20;;;19.50;65.50;;;;;;5056938;28;20029;-71
2021/05/10 07:27:01;;;;;;;3.00;0.20;;;19.50;65.60;;;;;;5073132;28;20087;-72
2021/05/10 07:29:28;;;;;;;0.30;0.10;;;19.60;65.60;;;;;;5072834;28;20079;-72
2021/05/10 07:31:54;;;;;;;0.30;0.20;;;19.70;65.40;;;;;;5053002;28;20574;-71
2021/05/10 07:34:22;;;;;;;1.05;0.30;;;19.70;65.00;;;;;;5073233;28;20494;-71
2021/05/10 07:36:49;;;;;;;1.13;0.30;;;19.70;65.00;;;;;;5073245;28;20045;-72
2021/05/10 07:39:16;;;;;;;0.50;0.20;;;19.70;64.80;;;;;;5072034;28;20129;-72
2021/05/10 07:41:42;;;;;;;0.77;0.30;;;19.80;64.60;;;;;;5038999;28;20102;-72
2021/05/10 07:44:09;;;;;;;1.67;0.20;;;19.90;64.30;;;;;;5072955;28;20057;-72
2021/05/10 07:46:36;;;;;;;1.08;0.30;;;20.20;64.10;;;;;;5072086;28;20480;-72
2021/05/10 07:49:03;;;;;;;1.70;0.30;;;20.30;63.70;;;;;;5073289;28;20143;-71
2021/05/10 07:51:29;;;;;;;1.38;0.38;;;20.30;63.60;;;;;;5051587;28;20481;-72
2021/05/10 07:53:56;;;;;;;1.67;0.50;;;20.20;63.30;;;;;;5056015;28;20037;-72
2021/05/10 07:56:24;;;;;;;0.93;0.35;;;20.00;63.50;;;;;;5069466;28;20040;-72
2021/05/10 07:58:52;;;;;;;2.33;0.70;;;19.80;63.80;;;;;;5073721;28;20040;-72
2021/05/10 08:01:19;;;;;;;0.75;0.30;;;19.70;64.20;;;;;;5071367;28;20053;-72
2021/05/10 08:03:46;;;;;;;1.33;0.35;;;19.60;64.60;;;;;;5060610;28;20052;-72
2021/05/10 08:06:12;;;;;;;0.82;0.32;;;19.50;64.80;;;;;;5072932;28;20102;-73
2021/05/10 08:08:39;;;;;;;1.75;0.30;;;19.50;64.90;;;;;;5055174;28;20255;-73
2021/05/10 08:11:06;;;;;;;1.45;0.40;;;19.40;65.10;;;;;;5071092;28;20064;-72
2021/05/10 08:13:33;;;;;;;1.42;0.40;;;19.50;65.20;;;;;;5071740;28;20444;-72
2021/05/10 08:15:59;;;;;;;1.60;0.30;;;19.50;65.30;;;;;;5054909;28;20378;-72
2021/05/10 08:18:26;;;;;;;1.95;0.30;;;19.40;65.40;;;;;;5074792;28;20403;-72
2021/05/10 08:20:57;;;;;;;0.82;0.30;;;19.40;65.60;;;;;;5066060;28;20075;-72
2021/05/10 08:23:25;;;;;;;0.80;0.50;;;19.40;65.70;;;;;;5041028;28;20049;-71
2021/05/10 08:25:53;;;;;;;0.57;0.38;;;19.30;66.50;;;;;;5054883;28;20374;-72
2021/05/10 08:28:20;;;;;;;1.58;0.40;;;19.30;65.90;;;;;;5068564;28;20127;-72
2021/05/10 08:30:48;;;;;;;1.05;0.30;;;19.30;65.90;;;;;;5067245;28;20054;-71
2021/05/10 08:33:14;;;;;;;1.30;0.32;;;19.40;66.00;;;;;;5077194;28;20036;-72
2021/05/10 08:35:41;;;;;;;1.10;0.30;;;19.40;65.70;;;;;;5072008;28;20508;-72
2021/05/10 08:38:07;;;;;;;1.52;0.40;;;19.50;65.70;;;;;;5082335;28;20043;-72
2021/05/10 08:40:34;;;;;;;0.90;0.40;;;19.40;65.70;;;;;;5072012;28;20098;-72
2021/05/10 08:43:02;;;;;;;1.17;0.40;;;19.30;65.90;;;;;;5070734;28;20161;-72
2021/05/10 08:45:34;;;;;;;2.10;0.40;;;19.20;66.40;;;;;;5061327;28;20484;-72
2021/05/10 08:48:05;;;;;;;2.05;0.32;;;18.90;67.00;;;;;;5071134;28;20044;-72
2021/05/10 08:50:32;;;;;;;1.85;0.30;;;18.70;67.60;;;;;;5055163;28;20392;-73
2021/05/10 08:52:59;;;;;;;0.77;0.30;;;18.60;68.10;;;;;;5054675;28;20036;-71
2021/05/10 08:55:26;;;;;;;0.80;0.30;;;18.70;68.30;;;;;;5072354;28;20040;-73
2021/05/10 08:57:53;;;;;;;0.73;0.35;;;18.80;68.20;;;;;;5070486;28;20040;-72
2021/05/10 09:00:22;;;;;;;2.58;0.30;;;19.00;68.00;;;;;;5058810;28;20082;-71
2021/05/10 09:03:04;;;;;;;1.23;0.40;;;19.10;67.90;;;;;;5071210;28;20084;-72
2021/05/10 09:05:45;;;;;;;0.63;0.30;;;19.10;67.80;;;;;;5058381;28;20037;-72
2021/05/10 09:08:15;;;;;;;0.98;0.30;;;19.10;67.70;;;;;;5076828;28;20461;-71
2021/05/10 09:11:04;;;;;;;0.90;0.30;;;19.00;67.70;;;;;;5055114;28;20060;-72
2021/05/10 09:13:55;;;;;;;1.65;0.30;;;19.00;67.70;;;;;;5066003;28;20786;-72
2021/05/10 09:16:22;;;;;;;2.08;0.20;;;19.10;67.70;;;;;;5070720;28;20052;-72
2021/05/10 09:18:59;;;;;;;2.72;0.43;;;19.20;67.50;;;;;;5053156;28;20451;-72
2021/05/10 09:21:28;;;;;;;0.80;0.25;;;19.30;67.20;;;;;;5070310;28;20432;-72
2021/05/10 09:24:21;;;;;;;1.00;0.30;;;19.30;67.00;;;;;;5058400;28;20076;-73
2021/05/10 09:27:23;;;;;;;1.23;0.22;;;19.40;67.40;;;;;;5070350;28;20064;-72
2021/05/10 09:29:52;;;;;;;1.00;0.40;;;19.40;66.70;;;;;;5070658;28;20033;-72
2021/05/10 09:32:29;;;;;;;1.10;0.43;;;19.40;66.70;;;;;;5073670;28;20046;-72
2021/05/10 09:35:19;;;;;;;0.40;0.30;;;19.40;66.40;;;;;;5072062;28;20067;-72
2021/05/10 09:38:07;;;;;;;0.60;0.40;;;19.40;66.40;;;;;;5071943;28;20042;-71
2021/05/10 09:40:57;;;;;;;1.38;0.40;;;19.40;66.30;;;;;;5070883;28;20439;-72
2021/05/10 09:43:26;;;;;;;1.30;0.50;;;19.50;66.10;;;;;;5061099;28;20047;-72
2021/05/10 09:45:59;;;;;;;0.95;0.40;;;19.50;66.10;;;;;;5072210;28;20384;-72
2021/05/10 09:48:33;;;;;;;0.82;0.30;;;19.50;65.90;;;;;;5070315;28;20120;-73
2021/05/10 09:51:05;;;;;;;1.30;0.43;;;19.60;65.70;;;;;;5075437;28;20033;-73
2021/05/10 09:53:34;;;;;;;1.17;0.35;;;19.70;65.60;;;;;;5075771;28;20051;-73
2021/05/10 09:56:02;;;;;;;1.15;0.50;;;19.80;65.50;;;;;;5074015;28;20088;-72
2021/05/10 09:58:46;;;;;;;3.80;0.63;;;19.70;65.20;;;;;;5075048;28;20047;-72
2021/05/10 10:01:22;;;;;;;0.75;0.30;;;19.70;65.50;;;;;;5074934;28;20049;-72
2021/05/10 10:03:59;;;;;;;1.73;0.40;;;19.60;65.60;;;;;;5058830;28;20488;-72
2021/05/10 10:06:28;;;;;;;1.77;0.30;;;19.60;65.60;;;;;;5074969;28;20123;-72
2021/05/10 10:08:56;;;;;;;4.03;0.50;;;19.60;65.80;;;;;;5075394;28;20098;-72
2021/05/10 10:11:24;;;;;;;0.40;0.30;;;19.60;65.80;;;;;;5073359;28;20651;-72
2021/05/10 10:13:57;;;;;;;1.20;0.30;;;19.50;65.90;;;;;;5074224;28;20044;-71
2021/05/10 10:16:27;;;;;;;1.67;0.30;;;19.50;65.90;;;;;;5073769;28;20053;-71
2021/05/10 10:18:57;;;;;;;1.75;0.50;;;19.50;65.90;;;;;;5074483;28;20128;-72
2021/05/10 10:21:25;;;;;;;0.80;0.40;;;19.50;66.60;;;;;;5052727;28;20447;-72
2021/05/10 10:24:10;;;;;;;0.65;0.30;;;19.50;66.00;;;;;;5071186;28;20049;-72
2021/05/10 10:26:59;;;;;;;1.52;0.60;;;19.50;66.00;;;;;;5061730;28;20037;-72
2021/05/10 10:29:29;;;;;;;3.88;0.60;;;19.40;66.30;;;;;;5066986;28;20047;-72
2021/05/10 10:31:58;;;;;;;1.20;0.60;;;19.50;66.40;;;;;;5071085;28;20040;-72
2021/05/10 10:34:28;;;;;;;1.88;0.40;;;19.50;66.30;;;;;;5068625;28;20029;-72
2021/05/10 10:37:00;;;;;;;1.27;0.40;;;19.50;66.30;;;;;;5066504;28;20048;-72
2021/05/10 10:39:30;;;;;;;2.30;0.70;;;19.50;66.40;;;;;;5072386;28;20492;-72
2021/05/10 10:42:12;;;;;;;1.70;0.80;;;19.40;66.50;;;;;;5066810;28;20045;-73
2021/05/10 10:44:56;;;;;;;3.03;1.00;;;19.20;66.60;;;;;;5065832;28;20111;-72
2021/05/10 10:47:45;;;;;;;2.42;1.10;;;19.00;67.20;;;;;;5069472;28;20041;-73
2021/05/10 10:50:17;;;;;;;3.30;1.20;;;18.70;68.00;;;;;;5068039;28;20037;-72
2021/05/10 10:52:57;;;;;;;3.15;1.00;;;18.50;68.70;;;;;;5064903;28;20045;-74
2021/05/10 10:55:27;;;;;;;2.22;1.10;;;18.30;69.00;;;;;;5068662;28;20479;-72
2021/05/10 10:58:14;;;;;;;2.50;1.35;;;18.10;69.90;;;;;;5073431;28;20399;-74
2021/05/10 11:00:56;;;;;;;1.42;0.93;;;17.90;70.20;;;;;;5066223;28;20043;-73
2021/05/10 11:03:23;;;;;;;1.98;1.02;;;17.90;70.40;;;;;;5068431;28;20040;-73
2021/05/10 11:05:50;;;;;;;2.22;1.05;;;18.00;70.60;;;;;;5063757;28;20043;-71
2021/05/10 11:08:37;;;;;;;2.10;1.10;;;18.10;70.60;;;;;;5062965;28;20381;-72
2021/05/10 11:11:03;;;;;;;2.13;1.40;;;18.20;70.90;;;;;;5069987;28;20045;-72
2021/05/10 11:13:41;;;;;;;2.22;1.58;;;17.90;71.60;;;;;;5057441;28;20044;-72
2021/05/10 11:16:11;;;;;;;3.35;1.88;;;17.70;72.50;;;;;;5069579;28;20060;-73
2021/05/10 11:18:50;;;;;;;4.60;1.77;;;17.50;73.60;;;;;;5068413;28;20036;-72
2021/05/10 11:21:26;;;;;;;2.45;1.52;;;17.40;74.10;;;;;;5063077;28;20036;-73
2021/05/10 11:23:54;;;;;;;2.10;1.40;;;17.40;74.30;;;;;;5065909;28;20078;-72
2021/05/10 11:26:52;;;;;;;2.95;1.27;;;17.30;74.50;;;;;;5067995;28;20040;-74
2021/05/10 11:29:25;;;;;;;3.08;1.30;;;17.20;74.70;;;;;;5075645;28;20041;-71
2021/05/10 11:31:59;;;;;;;1.90;1.40;;;17.10;75.10;;;;;;5068495;28;20503;-70
2021/05/10 11:34:34;;;;;;;6.53;2.40;;;17.00;75.40;;;;;;5064413;28;20066;-72
2021/05/10 11:37:00;;;;;;;2.67;1.40;;;16.80;75.70;;;;;;5060825;28;20041;-73
2021/05/10 11:39:29;;;;;;;2.50;1.88;;;16.70;76.60;;;;;;5064935;28;20039;-72
2021/05/10 11:41:58;;;;;;;3.10;1.70;;;16.60;76.30;;;;;;5062797;28;20056;-73
2021/05/10 11:44:34;;;;;;;3.72;1.60;;;16.60;76.80;;;;;;5063879;28;20041;-73
2021/05/10 11:47:02;;;;;;;3.55;1.98;;;16.50;76.90;;;;;;5066853;28;20561;-72
2021/05/10 11:49:40;;;;;;;2.97;1.98;;;16.50;77.40;;;;;;5062949;28;20072;-72
2021/05/10 11:52:16;;;;;;;4.57;2.30;;;16.40;78.10;;;;;;5065322;28;20135;-73
2021/05/10 11:54:46;;;;;;;3.47;2.15;;;16.30;78.20;;;;;;5068328;28;20051;-73
2021/05/10 11:57:15;;;;;;;2.50;1.30;;;16.30;78.30;;;;;;5059754;28;20479;-73
2021/05/10 12:02:32;;;;;;;2.28;1.00;;;16.50;78.30;;;;;;5065474;28;20033;-72
2021/05/10 12:05:02;;;;;;;2.17;0.85;;;16.60;78.10;;;;;;5065736;28;20040;-72
2021/05/10 12:07:30;;;;;;;2.47;1.00;;;16.70;77.80;;;;;;5058640;28;20044;-72
2021/05/10 12:10:00;;;;;;;1.90;1.13;;;17.00;77.60;;;;;;5062032;28;20047;-73
2021/05/10 12:12:30;;;;;;;1.67;1.00;;;17.10;77.30;;;;;;5049688;28;20115;-72
2021/05/10 12:15:15;;;;;;;1.80;1.00;;;17.40;76.80;;;;;;5066389;28;20043;-73
2021/05/10 12:17:52;;;;;;;2.20;1.00;;;17.70;76.00;;;;;;5067979;28;20120;-71
2021/05/10 12:20:23;;;;;;;1.85;0.95;;;17.90;75.30;;;;;;5063480;28;20048;-72
2021/05/10 12:22:54;;;;;;;1.42;0.77;;;18.20;75.10;;;;;;5064364;28;20044;-72
2021/05/10 12:25:28;;;;;;;1.95;1.10;;;18.40;74.50;;;;;;5065419;28;20044;-71
2021/05/10 12:28:08;;;;;;;1.20;0.70;;;18.80;73.80;;;;;;5080632;28;20049;-72
2021/05/10 12:30:47;;;;;;;1.88;1.27;;;19.90;72.20;;;;;;5059054;28;20041;-72
2021/05/10 12:33:16;;;;;;;1.90;0.93;;;20.60;70.30;;;;;;5059968;28;20045;-73
2021/05/10 12:35:52;;;;;;;2.85;1.33;;;20.80;69.70;;;;;;5058294;28;20503;-73
2021/05/10 12:38:37;;;;;;;1.80;1.17;;;20.70;69.20;;;;;;5060644;28;20052;-73
2021/05/10 12:41:07;;;;;;;2.63;1.30;;;21.40;69.00;;;;;;5059357;28;20835;-73
2021/05/10 12:43:55;;;;;;;1.88;0.90;;;21.60;67.60;;;;;;5059108;28;20872;-73
2021/05/10 12:46:24;;;;;;;3.10;1.40;;;21.20;68.00;;;;;;5055939;28;20041;-72
2021/05/10 12:48:51;;;;;;;1.85;0.90;;;21.10;68.80;;;;;;5037792;28;20032;-72
2021/05/10 12:51:25;;;;;;;4.78;1.10;;;21.30;68.40;;;;;;5057473;28;20040;-72
2021/05/10 12:54:04;;;;;;;1.77;0.90;;;21.30;68.10;;;;;;5020165;28;20242;-72
2021/05/10 12:56:42;;;;;;;2.38;1.00;;;21.10;68.30;;;;;;5055831;28;20049;-72
2021/05/10 12:59:09;;;;;;;1.85;1.08;;;21.30;68.10;;;;;;5059132;28;20340;-72
2021/05/10 13:01:36;;;;;;;2.10;1.00;;;22.10;67.10;;;;;;5062031;28;20105;-73
2021/05/10 13:04:09;;;;;;;2.75;0.85;;;23.10;65.50;;;;;;5062186;28;20091;-73
2021/05/10 13:06:44;;;;;;;1.73;1.05;;;24.10;63.70;;;;;;5061514;28;20040;-75
2021/05/10 13:09:26;;;;;;;2.35;0.80;;;24.90;62.30;;;;;;5060990;28;20037;-75
2021/05/10 13:11:58;;;;;;;1.70;1.10;;;25.00;61.70;;;;;;5057388;28;20033;-73
2021/05/10 13:31:26;;;;;;;2.85;1.35;;;22.20;66.40;;;;;;5053308;28;20045;-73